Time;durP1;ratioP1;P1;durP2;ratioP2;P2;SDS_P1;SDS_P2;PMS_P1;PMS_P2;Temp;Humidity;BMP_temperature;BMP_pressure;BME280_temperature;BME280_humidity;BME280_pressure;Samples;Min_cycle;Max_cycle;Signal;HPM_P1;HPM_P2
2023/03/15 00:00:09;;;;;;;;;;;;;;;10.92;63.12;99181.97;5340659;32;35347;-68
2023/03/15 00:03:11;;;;;;;;;;;;;;;11.03;62.52;99195.34;5347202;32;44500;-79
2023/03/15 00:06:13;;;;;;;;;;;;;;;11.06;62.52;99201.25;5360155;32;35533;-79
2023/03/15 00:09:15;;;;;;;;;;;;;;;11.02;62.52;99202.38;5353981;32;36227;-65
2023/03/15 00:12:17;;;;;;;;;;;;;;;10.46;63.81;99218.81;5367945;32;34870;-67
2023/03/15 00:15:19;;;;;;;;;;;;;;;10.83;63.14;99220.19;5365800;32;35175;-78
2023/03/15 00:18:21;;;;;;;;;;;;;;;11.19;62.18;99217.13;5372181;32;35351;-66
2023/03/15 00:21:23;;;;;;;;;;;;;;;10.90;62.84;99221.50;5372082;32;35124;-80
2023/03/15 00:24:25;;;;;;;;;;;;;;;10.77;62.78;99217.91;5364721;32;35980;-66
2023/03/15 00:27:27;;;;;;;;;;;;;;;11.03;61.57;99232.16;5375222;32;34753;-78
2023/03/15 00:30:29;;;;;;;;;;;;;;;11.01;61.34;99215.59;5369353;32;35262;-66
2023/03/15 00:33:33;;;;;;;;;;;;;;;10.92;61.63;99232.78;5374240;32;35422;-77
2023/03/15 00:36:36;;;;;;;;;;;;;;;10.62;61.80;99229.28;5370427;32;36659;-66
2023/03/15 00:39:39;;;;;;;;;;;;;;;10.78;61.63;99223.06;5370942;32;38886;-77
2023/03/15 00:42:49;;;;;;;;;;;;;;;10.66;61.41;99229.03;5364488;32;35610;-79
2023/03/15 00:45:51;;;;;;;;;;;;;;;10.73;60.43;99225.13;5369319;32;35460;-66
2023/03/15 00:48:53;;;;;;;;;;;;;;;10.26;61.56;99223.44;5368848;32;36696;-66
2023/03/15 00:51:55;;;;;;;;;;;;;;;10.35;60.89;99198.41;5339706;32;34645;-79
2023/03/15 00:54:57;;;;;;;;;;;;;;;10.14;61.09;99216.19;5379895;32;35669;-66
2023/03/15 00:57:59;;;;;;;;;;;;;;;10.36;61.39;99215.00;5343261;32;35759;-79
2023/03/15 01:01:08;;;;;;;;;;;;;;;10.20;61.03;99215.84;5371393;32;35347;-78
2023/03/15 01:04:13;;;;;;;;;;;;;;;10.37;60.49;99200.94;5331805;32;43672;-80
2023/03/15 01:07:15;;;;;;;;;;;;;;;10.50;60.53;99200.19;5335834;32;34731;-77
2023/03/15 01:10:17;;;;;;;;;;;;;;;10.75;59.40;99206.63;5370258;32;36095;-66
2023/03/15 01:13:19;;;;;;;;;;;;;;;10.45;59.01;99206.63;5351139;32;34694;-66
2023/03/15 01:16:21;;;;;;;;;;;;;;;10.33;59.87;99204.69;5392283;32;35158;-68
2023/03/15 01:19:23;;;;;;;;;;;;;;;10.27;59.76;99217.25;5353598;32;36014;-77
2023/03/15 01:22:25;;;;;;;;;;;;;;;10.68;58.14;99200.87;5348904;32;35839;-77
2023/03/15 01:25:27;;;;;;;;;;;;;;;10.00;59.44;99203.00;5368502;32;35673;-66
2023/03/15 01:28:29;;;;;;;;;;;;;;;10.17;58.91;99199.41;5346932;32;37360;-78
2023/03/15 01:31:31;;;;;;;;;;;;;;;9.94;59.75;99198.94;5374031;32;35150;-78
2023/03/15 01:34:33;;;;;;;;;;;;;;;9.94;59.28;99204.19;5367615;32;35230;-65
2023/03/15 01:37:35;;;;;;;;;;;;;;;10.03;58.78;99216.78;5362267;32;34796;-66
2023/03/15 01:40:41;;;;;;;;;;;;;;;9.95;59.09;99210.28;5363860;32;35532;-67
2023/03/15 01:43:46;;;;;;;;;;;;;;;9.95;58.97;99205.03;5353132;32;44725;-80
2023/03/15 01:46:48;;;;;;;;;;;;;;;9.73;59.43;99202.75;5363060;32;36521;-76
2023/03/15 01:50:10;;;;;;;;;;;;;;;9.64;59.26;99211.09;5347188;32;35637;-78
2023/03/15 01:53:12;;;;;;;;;;;;;;;10.05;58.22;99211.47;5367169;32;44164;-66
2023/03/15 01:56:14;;;;;;;;;;;;;;;9.62;58.87;99205.94;5355887;32;36059;-66
2023/03/15 01:59:18;;;;;;;;;;;;;;;9.74;58.05;99197.41;5371601;32;36496;-74
2023/03/15 02:02:21;;;;;;;;;;;;;;;9.67;58.63;99196.06;5342191;32;36087;-75
2023/03/15 02:05:25;;;;;;;;;;;;;;;9.90;57.59;99201.81;5337888;32;35816;-66
2023/03/15 02:08:28;;;;;;;;;;;;;;;9.74;58.43;99191.31;5358786;32;38079;-66
2023/03/15 02:11:30;;;;;;;;;;;;;;;9.46;58.91;99207.66;5349029;32;35531;-80
2023/03/15 02:14:31;;;;;;;;;;;;;;;9.42;58.37;99206.16;5362037;32;35255;-78
2023/03/15 02:17:38;;;;;;;;;;;;;;;9.42;58.45;99199.13;5342244;32;36963;-79
2023/03/15 02:20:43;;;;;;;;;;;;;;;9.60;58.03;99202.56;5374195;32;44179;-64
2023/03/15 02:23:46;;;;;;;;;;;;;;;9.60;58.20;99186.81;5350322;32;34897;-75
2023/03/15 02:26:50;;;;;;;;;;;;;;;9.55;58.42;99195.88;5355298;32;37995;-78
2023/03/15 02:29:52;;;;;;;;;;;;;;;9.19;59.10;99207.34;5363186;32;36770;-78
2023/03/15 02:32:54;;;;;;;;;;;;;;;9.52;57.86;99201.25;5347415;32;34890;-67
2023/03/15 02:35:56;;;;;;;;;;;;;;;9.39;58.45;99201.91;5386864;32;36664;-66
2023/03/15 02:38:58;;;;;;;;;;;;;;;9.50;58.41;99209.22;5340644;32;35542;-65
2023/03/15 02:42:00;;;;;;;;;;;;;;;9.82;57.22;99193.50;5376138;32;35588;-77
2023/03/15 02:45:03;;;;;;;;;;;;;;;9.50;58.68;99222.34;5358899;32;35749;-65
2023/03/15 02:48:05;;;;;;;;;;;;;;;9.25;59.24;99214.91;5369606;32;35637;-66
2023/03/15 02:51:06;;;;;;;;;;;;;;;9.17;59.62;99227.56;5370133;32;34781;-79
2023/03/15 02:54:08;;;;;;;;;;;;;;;9.52;58.86;99220.47;5336284;32;44922;-77
2023/03/15 02:57:11;;;;;;;;;;;;;;;9.69;58.58;99227.44;5362381;32;35310;-78
2023/03/15 03:00:13;;;;;;;;;;;;;;;9.43;59.07;99221.81;5348638;32;36298;-77
2023/03/15 03:03:15;;;;;;;;;;;;;;;9.42;59.55;99235.00;5367569;32;35603;-66
2023/03/15 03:06:17;;;;;;;;;;;;;;;9.27;59.28;99235.78;5349585;32;35335;-66
2023/03/15 03:09:19;;;;;;;;;;;;;;;9.59;58.76;99220.97;5352887;32;35854;-66
2023/03/15 03:12:21;;;;;;;;;;;;;;;9.41;59.67;99231.53;5364282;32;35453;-78
2023/03/15 03:15:23;;;;;;;;;;;;;;;9.07;60.57;99221.94;5351961;32;35823;-67
2023/03/15 03:18:26;;;;;;;;;;;;;;;9.13;60.26;99229.50;5365898;32;35834;-78
2023/03/15 03:21:27;;;;;;;;;;;;;;;9.08;60.33;99228.91;5352581;32;36282;-67
2023/03/15 03:24:30;;;;;;;;;;;;;;;9.23;60.02;99233.34;5359730;32;35561;-66
2023/03/15 03:27:35;;;;;;;;;;;;;;;9.20;59.77;99230.87;5350393;32;35752;-78
2023/03/15 03:30:37;;;;;;;;;;;;;;;8.81;60.52;99231.13;5348553;32;35481;-78
2023/03/15 03:33:39;;;;;;;;;;;;;;;9.20;59.81;99235.25;5374091;32;46955;-79
2023/03/15 03:36:42;;;;;;;;;;;;;;;9.09;59.98;99221.88;5350662;32;35344;-66
2023/03/15 03:39:43;;;;;;;;;;;;;;;9.15;59.55;99222.41;5361608;32;35951;-66
2023/03/15 03:42:45;;;;;;;;;;;;;;;9.44;59.07;99215.63;5353386;32;35288;-67
2023/03/15 03:45:47;;;;;;;;;;;;;;;8.87;60.58;99220.34;5355137;32;35941;-76
2023/03/15 03:48:49;;;;;;;;;;;;;;;9.18;59.14;99229.25;5361878;32;36562;-66
2023/03/15 03:51:51;;;;;;;;;;;;;;;9.57;57.94;99220.22;5351602;32;35410;-66
2023/03/15 03:54:53;;;;;;;;;;;;;;;9.72;57.07;99204.53;5364854;32;35309;-66
2023/03/15 03:57:55;;;;;;;;;;;;;;;9.15;58.21;99217.16;5354100;32;35649;-67
2023/03/15 04:00:57;;;;;;;;;;;;;;;9.34;57.14;99218.81;5374930;32;36007;-77
2023/03/15 04:03:59;;;;;;;;;;;;;;;9.13;57.43;99211.13;5338889;32;35476;-79
2023/03/15 04:07:01;;;;;;;;;;;;;;;9.69;56.07;99212.53;5352830;32;33227;-77
2023/03/15 04:10:03;;;;;;;;;;;;;;;9.32;56.70;99208.41;5364093;32;36001;-66
2023/03/15 04:13:05;;;;;;;;;;;;;;;8.98;57.87;99222.41;5357437;32;35320;-78
2023/03/15 04:16:07;;;;;;;;;;;;;;;9.25;56.40;99208.81;5371596;32;35556;-66
2023/03/15 04:19:11;;;;;;;;;;;;;;;8.99;56.77;99218.03;5348375;32;44670;-79
2023/03/15 04:22:14;;;;;;;;;;;;;;;9.29;55.64;99220.84;5379218;32;36468;-67
2023/03/15 04:25:16;;;;;;;;;;;;;;;9.54;54.75;99216.00;5350067;32;35128;-67
2023/03/15 04:28:18;;;;;;;;;;;;;;;9.44;54.75;99220.88;5345183;32;35162;-66
2023/03/15 04:31:20;;;;;;;;;;;;;;;9.00;55.56;99225.81;5356516;32;35947;-74
2023/03/15 04:34:27;;;;;;;;;;;;;;;9.53;54.62;99239.66;5355700;32;35523;-78
2023/03/15 04:37:31;;;;;;;;;;;;;;;9.42;54.79;99250.75;5387560;32;36157;-66
2023/03/15 04:40:35;;;;;;;;;;;;;;;9.77;52.98;99249.69;5342040;32;36027;-77
2023/03/15 04:43:37;;;;;;;;;;;;;;;9.91;52.55;99255.97;5362363;32;35516;-78
2023/03/15 04:46:39;;;;;;;;;;;;;;;9.21;52.88;99255.34;5354925;32;44701;-67
2023/03/15 04:49:41;;;;;;;;;;;;;;;9.17;53.26;99259.03;5366441;32;35321;-67
2023/03/15 04:52:43;;;;;;;;;;;;;;;8.81;53.49;99261.72;5363052;32;35874;-67
2023/03/15 04:55:45;;;;;;;;;;;;;;;8.59;54.19;99265.41;5352099;32;36225;-66
2023/03/15 04:58:47;;;;;;;;;;;;;;;8.67;54.14;99244.91;5385982;32;35492;-66
2023/03/15 05:01:49;;;;;;;;;;;;;;;8.84;53.81;99279.91;5350491;32;35977;-68
2023/03/15 05:04:51;;;;;;;;;;;;;;;8.52;54.58;99286.72;5357397;32;36071;-66
2023/03/15 05:07:53;;;;;;;;;;;;;;;8.14;55.25;99269.25;5371384;32;36188;-66
2023/03/15 05:10:54;;;;;;;;;;;;;;;8.36;55.04;99286.59;5353034;32;35400;-78
2023/03/15 05:13:56;;;;;;;;;;;;;;;8.09;55.08;99294.78;5367072;32;36544;-74
2023/03/15 05:17:00;;;;;;;;;;;;;;;7.86;55.87;99293.25;5363271;32;37525;-78
2023/03/15 05:20:11;;;;;;;;;;;;;;;7.94;55.68;99287.66;5372558;32;36675;-67
2023/03/15 05:23:13;;;;;;;;;;;;;;;7.94;55.49;99285.03;5368296;32;45080;-66
2023/03/15 05:26:15;;;;;;;;;;;;;;;8.02;55.59;99284.69;5356021;32;35604;-66
2023/03/15 05:29:17;;;;;;;;;;;;;;;7.95;55.90;99281.50;5352476;32;35286;-79
2023/03/15 05:32:18;;;;;;;;;;;;;;;7.66;56.18;99266.25;5361970;32;35557;-67
2023/03/15 05:35:23;;;;;;;;;;;;;;;7.66;56.57;99289.81;5364239;32;36169;-78
2023/03/15 05:38:25;;;;;;;;;;;;;;;7.29;57.67;99294.91;5339843;32;36311;-76
2023/03/15 05:41:27;;;;;;;;;;;;;;;7.60;57.14;99280.50;5361281;32;35956;-66
2023/03/15 05:44:29;;;;;;;;;;;;;;;7.78;56.89;99279.63;5362376;32;35330;-66
2023/03/15 05:47:31;;;;;;;;;;;;;;;7.46;57.86;99283.69;5366276;32;35532;-78
2023/03/15 05:50:34;;;;;;;;;;;;;;;7.21;58.55;99283.06;5356227;32;35339;-66
2023/03/15 05:53:36;;;;;;;;;;;;;;;7.02;59.88;99288.25;5363237;32;35200;-78
2023/03/15 05:56:38;;;;;;;;;;;;;;;7.07;59.69;99288.88;5364611;32;38125;-77
2023/03/15 05:59:40;;;;;;;;;;;;;;;7.49;58.82;99296.66;5362170;32;36524;-66
2023/03/15 06:02:42;;;;;;;;;;;;;;;7.30;59.25;99301.81;5369810;32;34753;-67
2023/03/15 06:05:44;;;;;;;;;;;;;;;7.00;59.71;99287.44;5329613;32;35631;-78
2023/03/15 06:08:46;;;;;;;;;;;;;;;6.99;60.28;99298.78;5384612;32;36573;-66
2023/03/15 06:11:48;;;;;;;;;;;;;;;7.40;59.16;99302.25;5353766;32;35788;-66
2023/03/15 06:14:50;;;;;;;;;;;;;;;7.01;60.86;99317.84;5348613;32;35581;-76
2023/03/15 06:17:52;;;;;;;;;;;;;;;7.42;59.56;99326.59;5389130;32;36330;-66
2023/03/15 06:20:54;;;;;;;;;;;;;;;7.48;59.11;99325.47;5354053;32;34769;-78
2023/03/15 06:23:56;;;;;;;;;;;;;;;7.70;58.81;99328.84;5363347;32;36380;-69
2023/03/15 06:26:58;;;;;;;;;;;;;;;7.23;59.93;99312.59;5347948;32;35311;-79
2023/03/15 06:30:00;;;;;;;;;;;;;;;7.66;58.84;99321.19;5359806;32;35559;-68
2023/03/15 06:33:02;;;;;;;;;;;;;;;7.62;59.22;99332.72;5365175;32;35319;-67
2023/03/15 06:36:04;;;;;;;;;;;;;;;7.39;59.95;99345.00;5352653;32;35124;-78
2023/03/15 06:39:06;;;;;;;;;;;;;;;7.15;60.67;99346.03;5365016;32;35429;-66
2023/03/15 06:42:08;;;;;;;;;;;;;;;7.05;61.07;99345.56;5358132;32;35705;-66
2023/03/15 06:45:10;;;;;;;;;;;;;;;7.11;60.68;99347.09;5370351;32;46325;-66
2023/03/15 06:48:12;;;;;;;;;;;;;;;6.57;62.74;99341.41;5354048;32;37874;-66
2023/03/15 06:51:14;;;;;;;;;;;;;;;6.67;61.20;99334.06;5354035;32;35366;-79
2023/03/15 06:54:16;;;;;;;;;;;;;;;6.91;61.60;99353.13;5364294;32;35309;-67
2023/03/15 06:57:18;;;;;;;;;;;;;;;6.73;61.38;99341.66;5367003;32;34871;-79
2023/03/15 07:00:21;;;;;;;;;;;;;;;6.64;61.94;99355.09;5374102;32;34882;-74
2023/03/15 07:03:23;;;;;;;;;;;;;;;7.00;61.18;99363.19;5354149;32;35291;-80
2023/03/15 07:06:27;;;;;;;;;;;;;;;6.47;62.08;99368.78;5353589;32;36511;-66
2023/03/15 07:09:28;;;;;;;;;;;;;;;7.44;59.93;99371.81;5369113;32;35635;-66
2023/03/15 07:12:30;;;;;;;;;;;;;;;7.17;59.76;99367.75;5378202;32;37111;-66
2023/03/15 07:15:34;;;;;;;;;;;;;;;7.16;59.91;99379.97;5377360;32;35164;-66
2023/03/15 07:18:36;;;;;;;;;;;;;;;7.27;59.66;99387.34;5383818;32;35319;-66
2023/03/15 07:21:38;;;;;;;;;;;;;;;7.19;59.37;99392.88;5383852;32;38088;-66
2023/03/15 07:24:40;;;;;;;;;;;;;;;7.18;59.66;99390.34;5358920;32;35259;-66
2023/03/15 07:27:42;;;;;;;;;;;;;;;6.62;60.72;99389.06;5390528;32;37461;-66
2023/03/15 07:30:51;;;;;;;;;;;;;;;6.76;60.71;99398.97;5370973;32;35468;-66
2023/03/15 07:33:53;;;;;;;;;;;;;;;6.77;60.65;99396.31;5366708;32;35525;-68
2023/03/15 07:36:54;;;;;;;;;;;;;;;6.91;60.14;99387.94;5383560;32;36199;-66
2023/03/15 07:39:59;;;;;;;;;;;;;;;6.67;60.18;99383.69;5355487;32;36337;-78
2023/03/15 07:43:01;;;;;;;;;;;;;;;6.97;59.36;99405.13;5380832;32;35886;-67
2023/03/15 07:46:03;;;;;;;;;;;;;;;7.30;57.94;99408.13;5347653;32;35384;-67
2023/03/15 07:49:05;;;;;;;;;;;;;;;6.92;59.09;99407.91;5382261;32;34816;-78
2023/03/15 07:52:07;;;;;;;;;;;;;;;7.38;57.53;99405.19;5345605;32;35622;-78
2023/03/15 07:55:09;;;;;;;;;;;;;;;7.42;57.55;99407.63;5357447;32;44704;-78
2023/03/15 07:58:11;;;;;;;;;;;;;;;7.38;56.90;99411.28;5389126;32;36111;-79
2023/03/15 08:01:13;;;;;;;;;;;;;;;7.39;56.64;99412.13;5373014;32;37555;-78
2023/03/15 08:04:15;;;;;;;;;;;;;;;7.71;55.50;99393.31;5377239;32;35957;-78
2023/03/15 08:07:17;;;;;;;;;;;;;;;7.37;55.60;99406.97;5362874;32;34762;-79
2023/03/15 08:10:19;;;;;;;;;;;;;;;7.62;55.20;99419.88;5388893;32;35841;-78
2023/03/15 08:13:21;;;;;;;;;;;;;;;7.58;54.24;99413.06;5375781;32;36039;-66
2023/03/15 08:16:23;;;;;;;;;;;;;;;7.56;53.93;99425.34;5360289;32;35511;-67
2023/03/15 08:19:25;;;;;;;;;;;;;;;7.25;54.82;99425.75;5357304;32;35465;-75
2023/03/15 08:22:27;;;;;;;;;;;;;;;7.54;53.61;99433.25;5349058;32;34207;-80
2023/03/15 08:25:29;;;;;;;;;;;;;;;7.17;54.30;99433.06;5371907;32;36377;-66
2023/03/15 08:28:31;;;;;;;;;;;;;;;7.20;54.03;99427.69;5357863;32;35647;-78
2023/03/15 08:31:33;;;;;;;;;;;;;;;8.24;51.36;99436.34;5369843;32;35230;-66
2023/03/15 08:34:35;;;;;;;;;;;;;;;7.59;51.96;99441.75;5348963;32;35417;-66
2023/03/15 08:37:37;;;;;;;;;;;;;;;7.21;53.62;99445.06;5364564;32;36601;-66
2023/03/15 08:40:39;;;;;;;;;;;;;;;7.01;53.39;99457.19;5366255;32;44501;-78
2023/03/15 08:43:42;;;;;;;;;;;;;;;7.27;52.67;99456.12;5359178;32;36057;-78
2023/03/15 08:46:44;;;;;;;;;;;;;;;7.39;52.25;99467.87;5390211;32;35187;-67
2023/03/15 08:49:46;;;;;;;;;;;;;;;8.19;49.85;99465.38;5349559;32;36167;-77
2023/03/15 08:52:48;;;;;;;;;;;;;;;8.01;50.73;99476.63;5366640;32;34886;-67
2023/03/15 08:55:50;;;;;;;;;;;;;;;7.99;49.81;99487.16;5362513;32;35626;-70
2023/03/15 08:58:52;;;;;;;;;;;;;;;7.54;50.78;99495.19;5369432;32;36124;-65
2023/03/15 09:01:53;;;;;;;;;;;;;;;7.67;50.58;99503.38;5390532;32;34695;-76
2023/03/15 09:04:55;;;;;;;;;;;;;;;7.56;50.67;99504.66;5353159;32;34839;-67
2023/03/15 09:07:59;;;;;;;;;;;;;;;7.37;50.67;99516.75;5357779;32;36184;-78
2023/03/15 09:11:01;;;;;;;;;;;;;;;7.96;49.52;99517.84;5346252;32;35291;-79
2023/03/15 09:14:03;;;;;;;;;;;;;;;7.64;49.41;99527.00;5389853;32;35818;-78
2023/03/15 09:17:05;;;;;;;;;;;;;;;7.47;49.67;99533.78;5351908;32;35792;-77
2023/03/15 09:20:13;;;;;;;;;;;;;;;7.26;50.17;99538.06;5352100;32;37595;-79
2023/03/15 09:23:15;;;;;;;;;;;;;;;7.53;49.80;99541.34;5361630;32;44707;-78
2023/03/15 09:26:17;;;;;;;;;;;;;;;7.43;49.31;99547.88;5363987;32;35158;-78
2023/03/15 09:29:19;;;;;;;;;;;;;;;7.11;50.02;99554.38;5389780;32;35838;-78
2023/03/15 09:32:21;;;;;;;;;;;;;;;7.45;49.44;99553.91;5362673;32;35448;-78
2023/03/15 09:35:23;;;;;;;;;;;;;;;7.31;49.74;99558.81;5377451;32;36802;-78
2023/03/15 09:38:25;;;;;;;;;;;;;;;7.16;50.33;99580.34;5375960;32;35980;-66
2023/03/15 09:41:39;;;;;;;;;;;;;;;7.31;49.57;99582.34;5366819;32;35321;-66
2023/03/15 09:44:47;;;;;;;;;;;;;;;7.02;50.50;99593.91;5364498;32;45257;-67
2023/03/15 09:47:58;;;;;;;;;;;;;;;7.09;50.02;99597.16;5365320;32;36129;-75
2023/03/15 09:51:09;;;;;;;;;;;;;;;7.24;49.79;99588.72;5387244;32;35003;-79
2023/03/15 09:54:12;;;;;;;;;;;;;;;7.66;49.00;99594.03;5342868;32;44857;-68
2023/03/15 09:57:18;;;;;;;;;;;;;;;7.25;49.66;99598.25;5335212;32;34416;-67
2023/03/15 10:00:21;;;;;;;;;;;;;;;7.33;49.59;99604.03;5355675;32;35201;-67
2023/03/15 10:03:34;;;;;;;;;;;;;;;7.18;49.52;99602.03;5354689;32;35400;-79
2023/03/15 10:06:36;;;;;;;;;;;;;;;7.64;49.10;99595.00;5349495;32;34650;-78
2023/03/15 10:09:38;;;;;;;;;;;;;;;7.20;49.57;99600.19;5353305;32;45286;-67
2023/03/15 10:12:42;;;;;;;;;;;;;;;7.06;49.52;99601.56;5360412;32;35324;-79
2023/03/15 10:15:59;;;;;;;;;;;;;;;7.14;49.09;99576.91;5347169;32;34749;-69
2023/03/15 10:19:04;;;;;;;;;;;;;;;7.30;48.67;99598.94;5361439;32;35644;-69
2023/03/15 10:22:10;;;;;;;;;;;;;;;7.55;48.12;99607.53;5384762;32;36672;-80
2023/03/15 10:25:25;;;;;;;;;;;;;;;8.07;47.20;99597.59;5351524;32;45332;-67
2023/03/15 10:28:28;;;;;;;;;;;;;;;7.84;47.78;99605.53;5352972;32;35518;-66
2023/03/15 10:31:35;;;;;;;;;;;;;;;7.64;47.16;99616.78;5363825;32;36241;-68
2023/03/15 10:34:50;;;;;;;;;;;;;;;7.79;47.33;99612.69;5339378;32;44990;-68
2023/03/15 10:37:53;;;;;;;;;;;;;;;7.93;47.20;99620.87;5358584;32;36346;-66
2023/03/15 10:40:56;;;;;;;;;;;;;;;7.98;46.48;99624.12;5341538;32;35504;-74
2023/03/15 10:44:02;;;;;;;;;;;;;;;8.61;45.56;99626.78;5374913;32;34782;-66
2023/03/15 10:47:08;;;;;;;;;;;;;;;8.60;45.14;99636.41;5343523;32;35974;-67
2023/03/15 10:50:31;;;;;;;;;;;;;;;8.66;45.26;99628.28;5356676;32;35149;-66
2023/03/15 10:53:33;;;;;;;;;;;;;;;9.44;43.55;99621.31;5378180;32;35316;-66
2023/03/15 10:56:36;;;;;;;;;;;;;;;8.90;43.83;99630.78;5343009;32;36061;-66
2023/03/15 10:59:52;;;;;;;;;;;;;;;8.92;43.83;99626.28;5387892;32;46432;-67
2023/03/15 11:03:04;;;;;;;;;;;;;;;8.80;43.50;99627.69;5366506;32;35770;-79
2023/03/15 11:06:19;;;;;;;;;;;;;;;9.19;42.71;99634.69;5347315;32;37319;-66
2023/03/15 11:09:22;;;;;;;;;;;;;;;9.39;42.57;99631.16;5377445;32;35780;-74
2023/03/15 11:12:25;;;;;;;;;;;;;;;9.19;42.54;99619.81;5362207;32;36507;-66
2023/03/15 11:15:27;;;;;;;;;;;;;;;8.82;43.22;99645.94;5345284;32;35720;-78
2023/03/15 11:18:29;;;;;;;;;;;;;;;8.90;43.12;99649.13;5349300;32;35465;-66
2023/03/15 11:21:32;;;;;;;;;;;;;;;9.25;42.75;99641.44;5357640;32;36017;-66
2023/03/15 11:24:34;;;;;;;;;;;;;;;9.04;43.04;99649.34;5355335;32;35854;-67
2023/03/15 11:27:36;;;;;;;;;;;;;;;10.32;40.54;99639.00;5361848;32;34714;-66
2023/03/15 11:30:38;;;;;;;;;;;;;;;9.82;40.73;99643.13;5367358;32;38772;-74
2023/03/15 11:33:52;;;;;;;;;;;;;;;9.72;40.99;99653.22;5352148;32;45310;-67
2023/03/15 11:36:56;;;;;;;;;;;;;;;9.47;41.09;99642.16;5377653;32;35943;-67
2023/03/15 11:40:10;;;;;;;;;;;;;;;11.27;38.01;99643.66;5344857;32;44399;-79
2023/03/15 11:43:18;;;;;;;;;;;;;;;9.57;40.90;99661.78;5345823;32;35803;-66
2023/03/15 11:46:25;;;;;;;;;;;;;;;10.55;39.31;99651.81;5362838;32;35998;-78
2023/03/15 11:49:36;;;;;;;;;;;;;;;10.01;39.48;99651.81;5336194;32;35069;-68
2023/03/15 11:52:40;;;;;;;;;;;;;;;9.99;39.80;99653.66;5362346;32;44595;-79
2023/03/15 11:55:46;;;;;;;;;;;;;;;9.67;40.38;99654.34;5345566;32;36038;-68
2023/03/15 11:59:10;;;;;;;;;;;;;;;10.50;38.87;99654.69;5373456;32;35796;-67
2023/03/15 12:02:15;;;;;;;;;;;;;;;10.32;39.21;99652.13;5383717;32;44930;-79
2023/03/15 12:05:35;;;;;;;;;;;;;;;9.69;39.81;99648.09;5350434;32;36117;-79
2023/03/15 12:08:42;;;;;;;;;;;;;;;9.54;40.16;99661.94;5388129;32;34808;-80
2023/03/15 12:11:44;;;;;;;;;;;;;;;10.02;39.46;99653.50;5367481;32;44871;-67
2023/03/15 12:14:46;;;;;;;;;;;;;;;9.80;39.58;99670.38;5365420;32;36246;-67
2023/03/15 12:17:54;;;;;;;;;;;;;;;9.24;40.68;99679.91;5363585;32;35746;-68
2023/03/15 12:21:06;;;;;;;;;;;;;;;10.04;39.04;99677.06;5371436;32;35440;-69
2023/03/15 12:24:27;;;;;;;;;;;;;;;9.71;39.60;99680.34;5386348;32;44216;-67
2023/03/15 12:27:28;;;;;;;;;;;;;;;9.50;39.84;99678.72;5370152;32;35475;-67
2023/03/15 12:30:32;;;;;;;;;;;;;;;10.62;37.86;99668.97;5383971;32;36100;-67
2023/03/15 12:33:42;;;;;;;;;;;;;;;9.84;38.94;99687.66;5368253;32;36265;-80
2023/03/15 12:36:46;;;;;;;;;;;;;;;10.17;38.63;99672.06;5372499;32;44482;-67
2023/03/15 12:39:47;;;;;;;;;;;;;;;9.82;38.50;99677.25;5373008;32;35994;-80
2023/03/15 12:42:51;;;;;;;;;;;;;;;9.99;38.58;99689.56;5365467;32;36237;-68
2023/03/15 12:45:53;;;;;;;;;;;;;;;9.50;38.90;99694.47;5386839;32;35476;-81
2023/03/15 12:49:24;;;;;;;;;;;;;;;9.84;38.23;99690.28;5350142;32;37703;-67
2023/03/15 12:52:31;;;;;;;;;;;;;;;9.53;38.15;99686.44;5329460;32;36373;-76
2023/03/15 12:55:33;;;;;;;;;;;;;;;10.00;37.16;99686.88;5350841;32;35633;-67
2023/03/15 12:58:35;;;;;;;;;;;;;;;9.86;36.88;99688.47;5346917;32;35333;-79
2023/03/15 13:01:37;;;;;;;;;;;;;;;10.47;35.43;99690.75;5365834;32;35192;-81
2023/03/15 13:04:40;;;;;;;;;;;;;;;10.12;35.76;99695.94;5344471;32;44616;-66
2023/03/15 13:07:46;;;;;;;;;;;;;;;9.21;36.82;99694.03;5348702;32;35584;-66
2023/03/15 13:11:16;;;;;;;;;;;;;;;9.54;36.03;99703.91;5373811;32;37027;-67
2023/03/15 13:14:33;;;;;;;;;;;;;;;10.20;35.30;99704.28;5341972;32;38649;-79
2023/03/15 13:17:38;;;;;;;;;;;;;;;9.92;34.67;99709.16;5363598;32;35539;-78
2023/03/15 13:20:41;;;;;;;;;;;;;;;10.17;33.94;99714.06;5369785;32;43118;-66
2023/03/15 13:23:45;;;;;;;;;;;;;;;10.21;34.23;99718.25;5360845;32;35518;-66
2023/03/15 13:26:50;;;;;;;;;;;;;;;9.97;34.38;99728.16;5339265;32;35529;-67
2023/03/15 13:29:52;;;;;;;;;;;;;;;10.28;34.17;99728.44;5334584;32;35572;-68
2023/03/15 13:33:04;;;;;;;;;;;;;;;10.33;33.79;99719.50;5352448;32;35080;-76
2023/03/15 13:36:16;;;;;;;;;;;;;;;10.12;34.13;99727.44;5371641;32;35327;-67
2023/03/15 13:39:20;;;;;;;;;;;;;;;10.57;33.28;99728.81;5358973;32;45521;-67
2023/03/15 13:42:23;;;;;;;;;;;;;;;9.94;34.01;99736.19;5346151;32;35570;-79
2023/03/15 13:45:25;;;;;;;;;;;;;;;10.09;33.97;99745.94;5371175;32;38350;-79
2023/03/15 13:48:30;;;;;;;;;;;;;;;10.62;32.82;99741.69;5372152;32;35782;-80
2023/03/15 13:51:33;;;;;;;;;;;;;;;9.98;33.46;99729.84;5350919;32;36462;-66
2023/03/15 13:54:35;;;;;;;;;;;;;;;10.12;32.94;99748.44;5359091;32;34230;-79
2023/03/15 13:57:37;;;;;;;;;;;;;;;10.49;32.48;99754.56;5345733;32;35903;-67
2023/03/15 14:00:40;;;;;;;;;;;;;;;9.57;33.61;99760.62;5359379;32;44504;-79
2023/03/15 14:03:42;;;;;;;;;;;;;;;9.81;33.21;99770.03;5354871;32;35776;-79
2023/03/15 14:06:44;;;;;;;;;;;;;;;9.60;33.07;99771.00;5356769;32;38343;-79
2023/03/15 14:09:46;;;;;;;;;;;;;;;9.74;32.54;99769.44;5359894;32;33948;-80
2023/03/15 14:12:49;;;;;;;;;;;;;;;9.07;33.60;99788.13;5345291;32;35194;-79
2023/03/15 14:15:55;;;;;;;;;;;;;;;9.78;32.69;99776.25;5361607;32;35472;-66
2023/03/15 14:19:07;;;;;;;;;;;;;;;9.79;32.34;99766.63;5381025;32;34748;-81
2023/03/15 14:22:14;;;;;;;;;;;;;;;8.95;33.49;99791.25;5347745;32;43372;-79
2023/03/15 14:25:18;;;;;;;;;;;;;;;8.95;33.61;99796.50;5369036;32;35237;-66
2023/03/15 14:28:20;;;;;;;;;;;;;;;9.84;32.50;99798.72;5347120;32;35682;-65
2023/03/15 14:31:42;;;;;;;;;;;;;;;9.62;32.28;99814.59;5388307;32;35566;-66
2023/03/15 14:34:45;;;;;;;;;;;;;;;8.91;33.33;99808.91;5349580;32;44941;-67
2023/03/15 14:37:47;;;;;;;;;;;;;;;9.55;32.36;99817.56;5352263;32;36532;-67
2023/03/15 14:40:50;;;;;;;;;;;;;;;8.94;33.35;99814.00;5368758;32;35775;-79
2023/03/15 14:43:52;;;;;;;;;;;;;;;8.58;33.98;99799.81;5352662;32;35911;-68
2023/03/15 14:46:54;;;;;;;;;;;;;;;9.44;32.58;99804.91;5388723;32;35559;-75
2023/03/15 14:49:56;;;;;;;;;;;;;;;8.83;33.63;99812.75;5358272;32;36285;-74
2023/03/15 14:52:58;;;;;;;;;;;;;;;8.83;33.58;99810.16;5375256;32;35316;-79
2023/03/15 14:56:00;;;;;;;;;;;;;;;8.80;33.79;99831.22;5367730;32;35677;-67
2023/03/15 14:59:07;;;;;;;;;;;;;;;8.74;33.93;99813.13;5363797;32;35565;-67
2023/03/15 15:02:14;;;;;;;;;;;;;;;8.77;34.28;99841.84;5358937;32;44555;-67
2023/03/15 15:05:20;;;;;;;;;;;;;;;8.30;34.41;99847.13;5298619;32;36100;-74
2023/03/15 15:08:22;;;;;;;;;;;;;;;8.57;34.15;99845.25;5364874;32;35723;-65
2023/03/15 15:11:25;;;;;;;;;;;;;;;9.33;33.09;99854.34;5366734;32;36251;-78
2023/03/15 15:14:27;;;;;;;;;;;;;;;9.05;33.53;99866.00;5374908;32;35337;-66
2023/03/15 15:17:29;;;;;;;;;;;;;;;8.22;34.67;99867.50;5353135;32;36208;-77
2023/03/15 15:20:31;;;;;;;;;;;;;;;8.35;34.52;99872.25;5366608;32;35707;-68
2023/03/15 15:23:34;;;;;;;;;;;;;;;8.57;34.26;99879.31;5374452;32;34926;-65
2023/03/15 15:26:48;;;;;;;;;;;;;;;8.72;33.94;99886.56;5354880;32;36614;-76
2023/03/15 15:29:51;;;;;;;;;;;;;;;8.16;34.51;99897.38;5352078;32;34885;-78
2023/03/15 15:32:53;;;;;;;;;;;;;;;8.40;34.27;99887.78;5356402;32;36166;-67
2023/03/15 15:35:55;;;;;;;;;;;;;;;9.08;33.00;99901.69;5381220;32;34913;-74
2023/03/15 15:38:57;;;;;;;;;;;;;;;8.31;33.83;99907.31;5354843;32;35922;-78
2023/03/15 15:41:59;;;;;;;;;;;;;;;8.73;33.03;99892.66;5367990;32;36054;-80
2023/03/15 15:45:01;;;;;;;;;;;;;;;8.18;33.56;99916.53;5370972;32;39180;-79
2023/03/15 15:48:05;;;;;;;;;;;;;;;8.32;33.60;99916.84;5351415;32;35395;-67
2023/03/15 15:51:14;;;;;;;;;;;;;;;7.99;33.81;99916.34;5368755;32;35296;-78
2023/03/15 15:54:17;;;;;;;;;;;;;;;8.09;33.53;99922.06;5329297;32;44541;-79
2023/03/15 15:57:20;;;;;;;;;;;;;;;8.20;33.38;99927.78;5330105;32;35559;-66
2023/03/15 16:00:23;;;;;;;;;;;;;;;8.84;32.29;99933.25;5347332;32;35512;-67
2023/03/15 16:03:25;;;;;;;;;;;;;;;8.47;32.71;99944.25;5343046;32;36913;-78
2023/03/15 16:06:27;;;;;;;;;;;;;;;8.09;33.01;99933.41;5354178;32;37202;-66